createdAt,value
2023-04-14T00:01:15.459Z,1.70
2023-04-14T00:03:43.212Z,1.90
2023-04-14T00:06:10.673Z,1.73
2023-04-14T00:08:38.157Z,1.70
2023-04-14T00:11:05.857Z,1.47
2023-04-14T00:13:34.664Z,1.70
2023-04-14T00:16:02.163Z,1.77
2023-04-14T00:18:29.656Z,1.90
2023-04-14T00:20:57.091Z,1.80
2023-04-14T00:23:24.541Z,1.70
2023-04-14T00:25:52.040Z,1.70
2023-04-14T00:28:19.438Z,1.67
2023-04-14T00:30:48.274Z,1.90
2023-04-14T00:33:15.748Z,1.50
2023-04-14T00:35:43.634Z,1.70
2023-04-14T00:38:11.013Z,2.00
2023-04-14T00:40:38.444Z,1.70
2023-04-14T00:43:05.956Z,1.70
2023-04-14T00:45:34.723Z,1.90
2023-04-14T00:48:04.030Z,1.50
2023-04-14T00:50:31.745Z,2.00
2023-04-14T00:52:59.269Z,2.03
2023-04-14T00:55:26.784Z,1.70
2023-04-14T00:57:55.218Z,1.60
2023-04-14T01:00:22.949Z,1.70
2023-04-14T01:02:50.963Z,1.80
2023-04-14T01:05:20.050Z,1.80
2023-04-14T01:07:49.130Z,1.70
2023-04-14T01:10:16.890Z,2.00
2023-04-14T01:12:54.570Z,1.70
2023-04-14T01:15:26.538Z,1.80
2023-04-14T01:17:57.986Z,1.70
2023-04-14T01:20:29.957Z,2.30
2023-04-14T01:23:00.834Z,2.10
2023-04-14T01:25:49.667Z,1.60
2023-04-14T01:28:22.547Z,1.60
2023-04-14T01:31:00.298Z,1.80
2023-04-14T01:33:30.240Z,1.80
2023-04-14T01:35:59.958Z,1.70
2023-04-14T01:38:28.538Z,1.70
2023-04-14T01:40:58.071Z,1.77
2023-04-14T01:43:27.336Z,1.57
2023-04-14T01:45:56.655Z,1.90
2023-04-14T01:48:25.005Z,1.90
2023-04-14T01:50:54.413Z,1.50
2023-04-14T01:53:22.102Z,2.10
2023-04-14T01:55:50.492Z,1.80
2023-04-14T01:58:18.789Z,1.70
2023-04-14T02:00:46.536Z,1.67
2023-04-14T02:03:14.499Z,1.70
2023-04-14T02:05:42.349Z,1.80
2023-04-14T02:08:12.976Z,1.70
2023-04-14T02:10:41.648Z,1.60
2023-04-14T02:13:10.490Z,1.60
2023-04-14T02:15:38.252Z,1.60
2023-04-14T02:18:06.985Z,1.73
2023-04-14T02:20:34.842Z,1.60
2023-04-14T02:23:02.525Z,1.80
2023-04-14T02:25:33.415Z,1.87
2023-04-14T02:28:02.183Z,1.60
2023-04-14T02:30:31.084Z,1.57
2023-04-14T02:33:02.271Z,1.70
2023-04-14T02:35:30.933Z,1.90
2023-04-14T02:38:01.686Z,1.73
2023-04-14T02:40:31.510Z,2.17
2023-04-14T02:43:02.077Z,1.93
2023-04-14T02:45:31.268Z,1.70
2023-04-14T02:48:02.536Z,1.80
2023-04-14T02:50:31.051Z,1.93
2023-04-14T02:52:59.154Z,1.90
2023-04-14T02:55:27.366Z,1.53
2023-04-14T02:57:55.024Z,1.60
2023-04-14T03:00:24.669Z,1.50
2023-04-14T03:02:53.388Z,1.60
2023-04-14T03:05:21.592Z,1.87
2023-04-14T03:07:51.796Z,1.50
2023-04-14T03:10:19.957Z,1.63
2023-04-14T03:12:47.928Z,1.73
2023-04-14T03:15:16.285Z,1.90
2023-04-14T03:17:46.349Z,2.00
2023-04-14T03:20:14.403Z,2.13
2023-04-14T03:22:44.122Z,1.80
2023-04-14T03:25:12.431Z,1.60
2023-04-14T03:27:40.815Z,1.53
2023-04-14T03:30:10.085Z,1.77
2023-04-14T03:32:41.855Z,1.70
2023-04-14T03:35:12.955Z,1.60
2023-04-14T03:37:40.776Z,2.00
2023-04-14T03:40:09.125Z,2.00
2023-04-14T03:42:37.934Z,1.90
2023-04-14T03:45:05.761Z,2.20
2023-04-14T03:47:33.323Z,1.97
2023-04-14T03:50:01.784Z,1.87
2023-04-14T03:52:32.228Z,2.17
2023-04-14T03:55:03.218Z,1.83
2023-04-14T03:57:32.588Z,1.97
2023-04-14T04:00:01.816Z,1.83
2023-04-14T04:02:30.328Z,1.50
2023-04-14T04:04:59.603Z,1.77
2023-04-14T04:07:28.517Z,1.90
2023-04-14T04:09:57.929Z,1.67
2023-04-14T04:12:26.339Z,1.37
2023-04-14T04:14:53.796Z,1.70
2023-04-14T04:17:24.001Z,1.60
2023-04-14T04:19:51.953Z,1.80
2023-04-14T04:22:21.349Z,1.83
2023-04-14T04:24:49.381Z,1.57
2023-04-14T04:27:27.791Z,1.90
2023-04-14T04:29:56.029Z,1.70
2023-04-14T04:32:23.793Z,1.70
2023-04-14T04:34:51.448Z,1.67
2023-04-14T04:37:19.775Z,1.73
2023-04-14T04:39:48.462Z,1.77
2023-04-14T04:42:16.500Z,1.57
2023-04-14T04:44:45.373Z,1.60
2023-04-14T04:47:13.006Z,1.70
2023-04-14T04:49:40.513Z,1.63
2023-04-14T04:52:07.924Z,2.10
2023-04-14T04:54:35.575Z,1.77
2023-04-14T04:57:03.100Z,1.80
2023-04-14T04:59:30.781Z,2.00
2023-04-14T05:01:59.659Z,1.70
2023-04-14T05:04:27.160Z,1.90
2023-04-14T05:06:55.072Z,2.10
2023-04-14T05:09:22.508Z,1.77
2023-04-14T05:11:49.915Z,1.80
2023-04-14T05:14:17.314Z,1.73
2023-04-14T05:16:44.773Z,1.90
2023-04-14T05:19:13.524Z,1.77
2023-04-14T05:21:41.030Z,1.90
2023-04-14T05:24:09.439Z,1.70
2023-04-14T05:26:57.698Z,2.00
2023-04-14T05:29:24.237Z,1.70
2023-04-14T05:31:51.614Z,1.80
2023-04-14T05:34:20.469Z,1.80
2023-04-14T05:36:47.853Z,2.07
2023-04-14T05:39:15.289Z,1.63
2023-04-14T05:41:42.749Z,1.93
2023-04-14T05:44:10.598Z,1.80
2023-04-14T05:46:38.123Z,2.03
2023-04-14T05:49:05.614Z,2.20
2023-04-14T05:51:34.381Z,1.87
2023-04-14T05:54:01.974Z,1.80
2023-04-14T05:56:29.733Z,2.20
2023-04-14T05:58:57.225Z,2.47
2023-04-14T06:01:24.656Z,2.17
2023-04-14T06:03:52.212Z,2.23
2023-04-14T06:06:20.681Z,2.10
2023-04-14T06:08:49.496Z,2.00
2023-04-14T06:11:17.149Z,2.17
2023-04-14T06:13:44.683Z,2.40
2023-04-14T06:16:12.283Z,1.93
2023-04-14T06:18:39.760Z,2.40
2023-04-14T06:21:07.783Z,1.87
2023-04-14T06:23:35.195Z,2.20
2023-04-14T06:26:05.517Z,2.00
2023-04-14T06:28:32.993Z,2.30
2023-04-14T06:31:01.342Z,2.40
2023-04-14T06:33:28.825Z,2.50
2023-04-14T06:35:56.299Z,2.50
2023-04-14T06:38:25.130Z,2.60
2023-04-14T06:40:53.363Z,3.23
2023-04-14T06:43:22.272Z,3.03
2023-04-14T06:45:50.741Z,3.60
2023-04-14T06:48:18.390Z,3.03
2023-04-14T06:50:52.951Z,2.87
2023-04-14T06:53:20.822Z,2.83
2023-04-14T06:55:49.838Z,2.60
2023-04-14T06:58:17.350Z,2.97
2023-04-14T07:00:46.184Z,2.70
2023-04-14T07:03:13.986Z,2.90
2023-04-14T07:05:41.629Z,2.90
2023-04-14T07:08:09.058Z,2.80
2023-04-14T07:10:36.531Z,2.50
2023-04-14T07:13:03.972Z,3.00
2023-04-14T07:15:31.353Z,2.97
2023-04-14T07:18:00.263Z,2.90
2023-04-14T07:20:28.089Z,2.80
2023-04-14T07:22:55.623Z,2.20
2023-04-14T07:25:23.170Z,2.90
2023-04-14T07:28:02.530Z,2.90
2023-04-14T07:30:30.493Z,3.00
2023-04-14T07:32:58.217Z,2.90
2023-04-14T07:35:27.144Z,2.93
2023-04-14T07:37:54.567Z,2.50
2023-04-14T07:40:21.989Z,2.50
2023-04-14T07:42:49.477Z,2.30
2023-04-14T07:45:17.017Z,2.43
2023-04-14T07:47:44.525Z,2.37
2023-04-14T07:50:12.133Z,2.27
2023-04-14T07:52:41.254Z,2.80
2023-04-14T07:55:08.771Z,2.70
2023-04-14T07:57:36.188Z,2.77
2023-04-14T08:00:04.266Z,2.60
2023-04-14T08:02:31.796Z,2.43
2023-04-14T08:04:59.558Z,2.43
2023-04-14T08:07:28.516Z,3.13
2023-04-14T08:09:57.312Z,2.20
2023-04-14T08:12:25.271Z,2.00
2023-04-14T08:14:53.769Z,2.70
2023-04-14T08:17:21.476Z,2.07
2023-04-14T08:19:48.864Z,2.40
2023-04-14T08:22:16.350Z,1.97
2023-04-14T08:24:43.822Z,2.20
2023-04-14T08:27:12.663Z,1.97
2023-04-14T08:29:40.202Z,1.97
2023-04-14T08:32:07.900Z,1.20
2023-04-14T08:34:35.403Z,1.67
2023-04-14T08:37:02.846Z,1.83
2023-04-14T08:39:30.299Z,2.27
2023-04-14T08:41:58.290Z,1.60
2023-04-14T08:44:27.054Z,1.93
2023-04-14T08:46:55.977Z,1.80
2023-04-14T08:49:27.611Z,1.80
2023-04-14T08:51:55.803Z,1.60
2023-04-14T08:54:23.404Z,1.80
2023-04-14T08:56:50.833Z,1.97
2023-04-14T08:59:18.350Z,2.07
2023-04-14T09:01:47.311Z,2.33
2023-04-14T09:04:15.278Z,1.93
2023-04-14T09:06:42.864Z,2.00
2023-04-14T09:09:10.918Z,2.00
2023-04-14T09:11:38.820Z,1.80
2023-04-14T09:14:06.388Z,1.70
2023-04-14T09:16:34.305Z,1.37
2023-04-14T09:19:07.439Z,1.70
2023-04-14T09:21:51.687Z,1.70
2023-04-14T09:24:23.807Z,1.70
2023-04-14T09:26:52.012Z,1.43
2023-04-14T09:29:19.490Z,1.57
2023-04-14T09:31:47.693Z,2.07
2023-04-14T09:34:20.311Z,1.80
2023-04-14T09:37:00.497Z,2.00
2023-04-14T09:39:28.181Z,1.50
2023-04-14T09:41:55.805Z,1.87
2023-04-14T09:44:23.276Z,2.00
2023-04-14T09:47:00.451Z,1.43
2023-04-14T09:49:29.861Z,1.77
2023-04-14T09:52:03.415Z,1.87
2023-04-14T09:54:30.851Z,1.40
2023-04-14T09:56:58.549Z,1.60
2023-04-14T09:59:33.962Z,1.50
2023-04-14T10:02:02.060Z,1.60
2023-04-14T10:04:31.443Z,1.30
2023-04-14T10:06:59.182Z,1.40
2023-04-14T10:09:27.921Z,1.50
2023-04-14T10:12:09.700Z,2.37
2023-04-14T10:14:37.679Z,1.73
2023-04-14T10:17:05.243Z,1.70
2023-04-14T10:19:34.246Z,1.50
2023-04-14T10:22:01.837Z,1.70
2023-04-14T10:24:29.444Z,1.40
2023-04-14T10:26:57.072Z,1.80
2023-04-14T10:29:24.580Z,1.40
2023-04-14T10:31:53.582Z,1.50
2023-04-14T10:34:23.064Z,1.80
2023-04-14T10:36:51.860Z,1.50
2023-04-14T10:39:24.291Z,1.30
2023-04-14T10:41:52.975Z,1.57
2023-04-14T10:44:27.356Z,1.30
2023-04-14T10:46:56.448Z,1.37
2023-04-14T10:49:31.136Z,1.40
2023-04-14T10:52:01.067Z,1.47
2023-04-14T10:54:28.561Z,1.53
2023-04-14T10:57:15.739Z,1.50
2023-04-14T10:59:43.594Z,1.50
2023-04-14T11:02:24.419Z,1.40
2023-04-14T11:05:02.284Z,1.30
2023-04-14T11:07:31.967Z,1.83
2023-04-14T11:10:01.146Z,1.47
2023-04-14T11:12:29.340Z,1.37
2023-04-14T11:14:57.577Z,1.50
2023-04-14T11:17:25.176Z,1.30
2023-04-14T11:19:55.057Z,1.67
2023-04-14T11:22:37.444Z,1.40
2023-04-14T11:25:06.967Z,1.40
2023-04-14T11:27:34.648Z,1.50
2023-04-14T11:30:02.223Z,1.60
2023-04-14T11:32:29.741Z,1.50
2023-04-14T11:35:07.647Z,1.63
2023-04-14T11:37:35.696Z,1.53
2023-04-14T11:40:03.451Z,1.20
2023-04-14T11:42:33.592Z,1.30
2023-04-14T11:45:01.115Z,1.50
2023-04-14T11:47:28.638Z,1.70
2023-04-14T11:49:56.093Z,1.20
2023-04-14T11:52:23.492Z,1.40
2023-04-14T11:54:51.187Z,1.50
2023-04-14T11:57:18.736Z,1.27
2023-04-14T11:59:48.123Z,1.70
2023-04-14T12:02:19.616Z,1.10
2023-04-14T12:04:48.580Z,1.27
2023-04-14T12:07:18.379Z,1.30
2023-04-14T12:09:46.857Z,1.10
2023-04-14T12:12:16.990Z,1.00
2023-04-14T12:14:45.677Z,1.77
2023-04-14T12:17:15.399Z,1.30
2023-04-14T12:19:43.320Z,1.20
2023-04-14T12:22:11.282Z,1.30
2023-04-14T12:24:39.607Z,1.10
2023-04-14T12:27:09.322Z,1.17
2023-04-14T12:29:37.144Z,1.23
2023-04-14T12:32:11.138Z,1.10
2023-04-14T12:34:40.144Z,1.50
2023-04-14T12:37:08.404Z,1.17
2023-04-14T12:39:49.163Z,1.30
2023-04-14T12:42:16.756Z,1.40
2023-04-14T12:44:54.296Z,1.10
2023-04-14T12:47:27.424Z,1.33
2023-04-14T12:49:56.869Z,1.20
2023-04-14T12:52:34.156Z,1.20
2023-04-14T12:55:03.124Z,1.60
2023-04-14T12:57:31.238Z,1.00
2023-04-14T12:59:59.503Z,1.20
2023-04-14T13:02:28.202Z,1.40
2023-04-14T13:04:57.658Z,1.37
2023-04-14T13:07:25.196Z,1.20
2023-04-14T13:09:52.643Z,1.33
2023-04-14T13:12:20.164Z,1.30
2023-04-14T13:14:48.053Z,0.90
2023-04-14T13:17:15.663Z,1.10
2023-04-14T13:19:43.064Z,1.17
2023-04-14T13:22:13.029Z,1.00
2023-04-14T13:24:40.440Z,1.20
2023-04-14T13:27:07.888Z,1.40
2023-04-14T13:29:35.609Z,1.07
2023-04-14T13:32:03.093Z,1.20
2023-04-14T13:34:30.558Z,1.17
2023-04-14T13:36:57.958Z,1.23
2023-04-14T13:39:27.253Z,1.03
2023-04-14T13:41:54.673Z,0.93
2023-04-14T13:44:22.363Z,0.97
2023-04-14T13:46:51.863Z,1.07
2023-04-14T13:49:19.336Z,1.00
2023-04-14T13:51:47.629Z,0.93
2023-04-14T13:54:16.292Z,1.00
2023-04-14T13:56:45.119Z,1.00
2023-04-14T13:59:14.432Z,0.80
2023-04-14T14:01:42.042Z,1.07
2023-04-14T14:04:09.676Z,1.37
2023-04-14T14:06:37.235Z,1.10
2023-04-14T14:09:06.417Z,1.10
2023-04-14T14:11:34.421Z,1.20
2023-04-14T14:14:03.830Z,1.20
2023-04-14T14:16:36.511Z,1.63
2023-04-14T14:19:05.352Z,1.30
2023-04-14T14:21:32.880Z,1.00
2023-04-14T14:24:01.095Z,1.00
2023-04-14T14:26:28.927Z,1.10
2023-04-14T14:28:56.579Z,1.00
2023-04-14T14:31:25.456Z,0.80
2023-04-14T14:33:52.920Z,1.10
2023-04-14T14:36:20.352Z,1.00
2023-04-14T14:38:47.740Z,1.20
2023-04-14T14:41:15.686Z,1.00
2023-04-14T14:43:43.181Z,1.13
2023-04-14T14:46:10.843Z,0.97
2023-04-14T14:48:39.861Z,1.17
2023-04-14T14:51:07.323Z,1.20
2023-04-14T14:53:34.642Z,1.10
2023-04-14T14:56:02.072Z,1.10
2023-04-14T14:58:29.654Z,1.40
2023-04-14T15:00:57.172Z,1.00
2023-04-14T15:03:24.731Z,0.93
2023-04-14T15:05:54.032Z,0.90
2023-04-14T15:08:21.568Z,1.00
2023-04-14T15:10:49.031Z,1.03
2023-04-14T15:13:16.478Z,0.77
2023-04-14T15:15:44.048Z,1.07
2023-04-14T15:18:12.084Z,1.10
2023-04-14T15:20:39.631Z,1.10
2023-04-14T15:23:08.415Z,0.90
2023-04-14T15:25:35.852Z,1.00
2023-04-14T15:28:03.320Z,0.90
2023-04-14T15:30:30.744Z,0.93
2023-04-14T15:32:58.256Z,0.87
2023-04-14T15:35:26.301Z,1.10
2023-04-14T15:37:53.784Z,1.07
2023-04-14T15:40:22.736Z,1.00
2023-04-14T15:42:50.284Z,1.20
2023-04-14T15:45:17.827Z,0.90
2023-04-14T15:47:46.924Z,3.30
2023-04-14T15:50:18.866Z,2.30
2023-04-14T15:52:47.307Z,1.10
2023-04-14T15:55:14.715Z,0.97
2023-04-14T15:57:43.553Z,1.00
2023-04-14T16:00:11.818Z,1.00
2023-04-14T16:02:39.448Z,1.07
2023-04-14T16:05:08.054Z,1.10
2023-04-14T16:07:35.501Z,1.10
2023-04-14T16:10:03.115Z,0.90
2023-04-14T16:12:30.714Z,1.00
2023-04-14T16:14:59.489Z,1.53
2023-04-14T16:17:26.986Z,1.23
2023-04-14T16:19:54.600Z,1.00
2023-04-14T16:22:21.964Z,0.93
2023-04-14T16:24:49.417Z,1.10
2023-04-14T16:27:17.067Z,1.27
2023-04-14T16:29:44.581Z,1.00
2023-04-14T16:32:13.405Z,1.10
2023-04-14T16:34:40.857Z,1.20
2023-04-14T16:37:08.367Z,1.20
2023-04-14T16:39:35.813Z,1.30
2023-04-14T16:42:03.295Z,1.23
2023-04-14T16:44:30.715Z,1.00
2023-04-14T16:46:58.258Z,0.90
2023-04-14T16:49:27.102Z,1.10
2023-04-14T16:51:57.072Z,0.90
2023-04-14T16:54:24.553Z,1.13
2023-04-14T16:56:52.879Z,1.00
2023-04-14T16:59:20.362Z,1.00
2023-04-14T17:01:47.959Z,1.00
2023-04-14T17:04:15.742Z,1.03
2023-04-14T17:06:44.736Z,1.00
2023-04-14T17:09:12.136Z,1.10
2023-04-14T17:11:40.069Z,1.20
2023-04-14T17:14:08.067Z,1.13
2023-04-14T17:16:35.599Z,1.40
2023-04-14T17:19:04.606Z,1.23
2023-04-14T17:21:32.013Z,1.10
2023-04-14T17:24:01.136Z,1.20
2023-04-14T17:26:29.156Z,1.10
2023-04-14T17:28:56.780Z,1.17
2023-04-14T17:31:24.885Z,0.97
2023-04-14T17:33:52.575Z,1.10
2023-04-14T17:36:20.114Z,1.07
2023-04-14T17:38:47.977Z,0.97
2023-04-14T17:41:16.858Z,0.93
2023-04-14T17:43:44.940Z,1.30
2023-04-14T17:46:12.591Z,1.20
2023-04-14T17:48:40.362Z,6.50
2023-04-14T17:51:07.843Z,3.93
2023-04-14T17:53:35.243Z,3.13
2023-04-14T17:56:02.659Z,2.47
2023-04-14T17:58:31.865Z,5.70
2023-04-14T18:00:59.445Z,8.27
2023-04-14T18:03:27.532Z,10.90
2023-04-14T18:05:55.033Z,7.70
2023-04-14T18:08:22.491Z,3.60
2023-04-14T18:10:49.964Z,1.83
2023-04-14T18:13:17.937Z,2.40
2023-04-14T18:15:47.907Z,2.20
2023-04-14T18:18:15.615Z,2.07
2023-04-14T18:20:45.381Z,1.97
2023-04-14T18:23:12.905Z,1.93
2023-04-14T18:28:10.871Z,2.47
2023-04-14T18:30:39.031Z,3.10
2023-04-14T18:33:08.875Z,2.10
2023-04-14T18:35:36.352Z,3.10
2023-04-14T18:38:04.118Z,2.23
2023-04-14T18:40:31.620Z,1.87
2023-04-14T18:42:59.040Z,1.80
2023-04-14T18:45:27.023Z,1.40
2023-04-14T18:47:54.474Z,1.43
2023-04-14T18:50:23.301Z,1.20
2023-04-14T18:52:50.676Z,0.97
2023-04-14T18:55:19.129Z,1.13
2023-04-14T18:57:46.902Z,1.10
2023-04-14T19:00:14.519Z,1.50
2023-04-14T19:02:42.885Z,4.10
2023-04-14T19:05:11.719Z,2.00
2023-04-14T19:07:40.509Z,1.73
2023-04-14T19:10:08.501Z,1.27
2023-04-14T19:12:37.790Z,1.30
2023-04-14T19:15:05.570Z,1.40
2023-04-14T19:17:34.055Z,1.20
2023-04-14T19:20:02.018Z,1.17
2023-04-14T19:22:29.563Z,1.30
2023-04-14T19:24:58.284Z,1.93
2023-04-14T19:27:26.323Z,1.90
2023-04-14T19:29:53.931Z,1.30
2023-04-14T19:32:21.356Z,1.03
2023-04-14T19:34:48.879Z,1.10
2023-04-14T19:37:16.412Z,1.20
2023-04-14T19:39:44.410Z,1.30
2023-04-14T19:42:13.354Z,1.10
2023-04-14T19:44:40.937Z,2.33
2023-04-14T19:47:08.470Z,2.00
2023-04-14T19:49:36.325Z,2.07
2023-04-14T19:52:04.748Z,2.23
2023-04-14T19:54:32.226Z,2.20
2023-04-14T19:57:00.339Z,1.90
2023-04-14T19:59:31.353Z,2.20
2023-04-14T20:02:00.940Z,2.60
2023-04-14T20:04:28.820Z,3.13
2023-04-14T20:06:56.446Z,2.20
2023-04-14T20:09:24.434Z,3.57
2023-04-14T20:11:52.551Z,3.40
2023-04-14T20:14:20.499Z,3.67
2023-04-14T20:16:50.082Z,2.50
2023-04-14T20:19:17.502Z,3.63
2023-04-14T20:21:44.948Z,3.30
2023-04-14T20:24:13.447Z,3.93
2023-04-14T20:26:43.484Z,3.70
2023-04-14T20:29:11.688Z,4.80
2023-04-14T20:31:39.712Z,3.13
2023-04-14T20:34:09.764Z,3.50
2023-04-14T20:36:38.169Z,2.80
2023-04-14T20:39:06.271Z,3.20
2023-04-14T20:41:34.568Z,2.90
2023-04-14T20:44:02.146Z,3.00
2023-04-14T20:46:29.635Z,2.70
2023-04-14T20:48:57.158Z,2.73
2023-04-14T20:51:26.049Z,3.00
2023-04-14T20:53:53.557Z,2.60
2023-04-14T20:56:21.281Z,2.43
2023-04-14T20:58:49.498Z,2.67
2023-04-14T21:01:17.139Z,2.27
2023-04-14T21:03:45.090Z,2.20
2023-04-14T21:06:12.847Z,2.13
2023-04-14T21:08:42.552Z,2.10
2023-04-14T21:11:15.466Z,2.30
2023-04-14T21:15:27.033Z,2.37
2023-04-14T21:16:32.324Z,2.23
2023-04-14T21:19:00.290Z,2.07
2023-04-14T21:21:28.046Z,2.17
2023-04-14T21:23:57.040Z,2.13
2023-04-14T21:26:24.720Z,2.17
2023-04-14T21:28:52.386Z,2.00
2023-04-14T21:31:19.957Z,1.83
2023-04-14T21:33:47.762Z,2.00
2023-04-14T21:36:15.629Z,2.23
2023-04-14T21:38:43.501Z,2.40
2023-04-14T21:41:13.198Z,2.23
2023-04-14T21:43:40.749Z,2.30
2023-04-14T21:46:08.459Z,2.40
2023-04-14T21:48:35.900Z,2.00
2023-04-14T21:51:03.624Z,2.00
2023-04-14T21:53:32.246Z,2.40
2023-04-14T21:56:10.513Z,2.37
2023-04-14T21:58:41.358Z,2.57
2023-04-14T22:01:10.189Z,2.50
2023-04-14T22:03:40.496Z,2.33
2023-04-14T22:06:09.830Z,2.30
2023-04-14T22:08:39.836Z,2.80
2023-04-14T22:11:08.165Z,2.80
2023-04-14T22:13:35.636Z,2.73
2023-04-14T22:16:05.213Z,2.30
2023-04-14T22:18:32.710Z,2.50
2023-04-14T22:21:00.362Z,2.60
2023-04-14T22:23:28.420Z,2.73
2023-04-14T22:25:56.337Z,2.60
2023-04-14T22:28:23.824Z,2.63
2023-04-14T22:30:51.398Z,2.50
2023-04-14T22:33:20.385Z,2.90
2023-04-14T22:35:47.821Z,2.27
2023-04-14T22:38:15.283Z,2.00
2023-04-14T22:40:42.860Z,2.40
2023-04-14T22:43:10.736Z,2.30
2023-04-14T22:45:38.185Z,2.27
2023-04-14T22:48:06.785Z,2.20
2023-04-14T22:50:35.975Z,2.40
2023-04-14T22:53:03.532Z,2.57
2023-04-14T22:55:31.554Z,2.40
2023-04-14T22:57:59.040Z,2.30
2023-04-14T23:00:26.649Z,2.47
2023-04-14T23:02:55.683Z,2.53
2023-04-14T23:05:23.283Z,2.40
2023-04-14T23:07:52.611Z,2.10
2023-04-14T23:10:20.326Z,3.10
2023-04-14T23:12:47.822Z,2.43
2023-04-14T23:15:15.363Z,2.30
2023-04-14T23:17:42.993Z,2.23
2023-04-14T23:20:10.697Z,2.13
2023-04-14T23:22:38.518Z,2.00
2023-04-14T23:25:09.165Z,2.80
2023-04-14T23:27:36.620Z,2.70
2023-04-14T23:30:05.395Z,2.67
2023-04-14T23:32:33.721Z,2.77
2023-04-14T23:35:01.271Z,2.60
2023-04-14T23:37:28.722Z,2.63
2023-04-14T23:39:56.200Z,2.73
2023-04-14T23:42:25.184Z,2.80
2023-04-14T23:44:52.649Z,2.33
2023-04-14T23:47:20.127Z,2.73
2023-04-14T23:49:47.598Z,2.50
2023-04-14T23:52:16.503Z,2.90
2023-04-14T23:54:44.772Z,3.10
2023-04-14T23:57:12.396Z,2.50
2023-04-14T23:59:41.672Z,2.63
